Currently 49°F in San Jacinto, California, USA
49°F
59°F / 47°F
calm
0.00"
Saturday, October 16, 2021 7:41 AM PDT

San Jacinto, California Weather Summary
Last 36 Hours

Temperature Winds Hourly Humidity Dewpoint
Time Report Norm Report Norm Max Gusts Precip. Rpt. Norm Rpt. Norm Pressure
1Sat 07:41 AM  48.6°F  56°F  calm  1 mph  none  0.00"  41%  66%  25°F  44°F  30.04"
Sat 07:00 AM  47.1°F  55°F  calm  1 mph  none  0.00"  40%  67%  23°F  44°F  30.04"
3Sat 06:59 AM  47.1°F  55°F  calm  1 mph  none  ----  40%  67%  23°F  44°F  30.04"
Sat 06:00 AM  48.7°F  56°F  calm  1 mph  none  0.00"  39%  66%  24°F  44°F  30.03"
Sat 05:00 AM  49.8°F  56°F  calm  calm  none  0.00"  36%  65%  23°F  44°F  30.03"
Sat 04:00 AM  51.8°F  57°F  calm  calm  none  0.00"  33%  64%  22°F  44°F  30.03"
Sat 03:00 AM  55.6°F  58°F  calm  calm  none  0.00"  29%  62%  22°F  45°F  30.03"
Sat 02:00 AM  55.9°F  59°F  calm  1 mph  none  0.00"  29%  61%  23°F  45°F  30.04"
Sat 01:00 AM  58.3°F  61°F  calm  1 mph  none  0.00"  26%  60%  22°F  46°F  30.05"
2Sat 12:17 AM  59.4°F  62°F  calm  calm  none  ----  25%  58%  22°F  46°F  30.06"
Sat 12:02 AM  59.2°F  62°F  calm  1 mph  none  0.00"  25%  58%  22°F  46°F  30.06"
Fri 11:00 PM  62.6°F  64°F  calm  1 mph  none  0.00"  21%  56%  20°F  47°F  30.05"
Fri 10:00 PM  64.4°F  66°F  calm  1 mph  none  0.00"  21%  54%  22°F  48°F  30.05"
Fri 09:00 PM  68.7°F  68°F  calm  1 mph  none  0.00"  17%  51%  20°F  49°F  30.05"
Fri 08:00 PM  72.7°F  70°F  calm  1 mph  none  0.00"  13%  47%  17°F  49°F  30.03"
Fri 07:00 PM  75.9°F  73°F  calm  2 mph  none  0.00"  11%  44%  15°F  49°F  30.00"
Fri 06:00 PM  79.7°F  77°F  calm  3 mph  6 mph  0.00"  9%  37%  13°F  48°F  29.99"
Fri 05:00 PM  82.6°F  80°F  calm  4 mph  16 mph  0.00"  9%  32%  16°F  46°F  30.00"
Fri 04:00 PM  83.7°F  81°F  4 mph NE  4 mph  10 mph  0.00"  9%  29%  17°F  45°F  30.00"
Fri 03:00 PM  83.5°F  82°F  1 mph NE  4 mph  9 mph  0.00"  9%  28%  16°F  44°F  30.02"
Fri 02:00 PM  82.0°F  81°F  1 mph NE  3 mph  14 mph  0.00"  9%  29%  15°F  45°F  30.03"
Fri 01:00 PM  81.0°F  80°F  1 mph E  3 mph  13 mph  0.00"  12%  31%  22°F  45°F  30.06"
Fri 12:00 PM  79.3°F  77°F  calm  2 mph  11 mph  0.00"  14%  35%  24°F  46°F  30.08"
Fri 11:00 AM  78.4°F  73°F  calm  2 mph  1 mph  0.00"  15%  41%  25°F  47°F  30.10"
Fri 10:00 AM  71.6°F  68°F  calm  1 mph  none  0.00"  22%  49%  29°F  48°F  30.11"
Fri 09:00 AM  62.4°F  63°F  calm  1 mph  6 mph  0.00"  36%  56%  34°F  47°F  30.12"
Fri 08:00 AM  55.2°F  57°F  calm  1 mph  none  0.00"  43%  64%  32°F  45°F  30.11"
Fri 07:00 AM  51.6°F  55°F  calm  1 mph  none  0.00"  44%  67%  29°F  44°F  30.09"
Fri 06:00 AM  50.4°F  56°F  calm  1 mph  none  0.00"  45%  66%  29°F  44°F  30.08"
Fri 05:00 AM  50.5°F  57°F  calm  calm  none  0.00"  46%  65%  30°F  44°F  30.07"
Fri 04:00 AM  52.0°F  57°F  calm  calm  none  0.00"  43%  64%  29°F  45°F  30.06"
Fri 03:00 AM  52.3°F  58°F  calm  calm  none  0.00"  43%  62%  30°F  45°F  30.07"
Fri 02:00 AM  54.1°F  59°F  calm  1 mph  1 mph  0.00"  39%  61%  29°F  45°F  30.07"
Fri 01:00 AM  57.7°F  61°F  calm  1 mph  none  0.00"  35%  59%  29°F  46°F  30.06"
Fri 12:02 AM  58.3°F  62°F  calm  1 mph  2 mph  0.00"  34%  58%  29°F  47°F  30.06"
Thu 11:00 PM  61.7°F  64°F  calm  calm  3 mph  0.00"  30%  56%  29°F  47°F  30.07"
Thu 10:00 PM  64.9°F  66°F  calm  1 mph  1 mph  0.00"  27%  54%  29°F  48°F  30.05"
Thu 09:00 PM  67.8°F  68°F  calm  1 mph  none  0.00"  29%  51%  33°F  49°F  30.03"
Thu 08:00 PM  71.6°F  70°F  calm  1 mph  6 mph  0.00"  20%  47%  27°F  49°F  30.01"

  1. Current weather data. No green row appears if the current weather data is also the high or low for the current day.
  2. High temperature for the current day.
  3. Low temperature for the current day.

The San Jacinto, California weather pages are a service of WeatherCurrents. San Jacinto is located in the heart of the San Jacinto Valley, near Hemet, the Soboba Casino, and at the foot of the San Jacinto Mountains.
Copyright ©2021  WeatherCurrents. All rights reserved. - Submit questions and comments - Privacy Policy

This page automatically refreshes every 10 minutes.